Time;durP1;ratioP1;P1;durP2;ratioP2;P2;SDS_P1;SDS_P2;PMS_P1;PMS_P2;Temp;Humidity;BMP_temperature;BMP_pressure;BME280_temperature;BME280_humidity;BME280_pressure;Samples;Min_cycle;Max_cycle;Signal;HPM_P1;HPM_P2
2021/03/27 00:01:36;;;;;;;18.60;8.73;;;;;;;6.89;64.41;96771.34;5024578;28;20044;-62
2021/03/27 00:04:15;;;;;;;15.65;7.78;;;;;;;7.25;61.83;96778.41;5009628;28;20067;-63
2021/03/27 00:06:46;;;;;;;13.15;7.05;;;;;;;7.17;62.38;96773.94;5002320;28;20658;-63
2021/03/27 00:09:34;;;;;;;19.10;9.38;;;;;;;6.86;65.81;96774.25;5005475;28;20053;-63
2021/03/27 00:12:28;;;;;;;13.02;8.52;;;;;;;6.45;68.29;96767.69;5002173;28;20034;-63
2021/03/27 00:15:24;;;;;;;20.02;9.30;;;;;;;5.69;73.39;96781.34;5002004;28;20389;-63
2021/03/27 00:18:01;;;;;;;15.02;8.80;;;;;;;5.84;71.99;96771.41;5003628;28;20510;-63
2021/03/27 00:20:42;;;;;;;13.18;7.32;;;;;;;6.53;64.74;96766.03;5007998;28;20037;-63
2021/03/27 00:23:20;;;;;;;11.88;6.20;;;;;;;6.94;62.05;96763.16;5008471;28;20045;-63
2021/03/27 00:26:00;;;;;;;13.77;5.65;;;;;;;7.24;60.58;96764.66;5003878;28;20328;-62
2021/03/27 00:28:37;;;;;;;9.27;5.32;;;;;;;7.29;59.56;96766.81;5005801;28;20046;-62
2021/03/27 00:31:09;;;;;;;8.93;5.85;;;;;;;7.17;59.92;96762.78;4996924;28;20087;-63
2021/03/27 00:33:41;;;;;;;11.18;5.60;;;;;;;7.09;60.17;96759.16;5007927;28;20560;-63
2021/03/27 00:36:12;;;;;;;8.30;5.55;;;;;;;7.16;60.24;96761.16;5008720;28;20038;-64
2021/03/27 00:38:44;;;;;;;9.05;5.65;;;;;;;7.06;60.16;96754.25;5001102;28;20050;-63
2021/03/27 00:41:14;;;;;;;9.43;5.72;;;;;;;6.91;60.79;96753.09;5010028;28;20116;-64
2021/03/27 00:43:44;;;;;;;9.20;5.68;;;;;;;6.89;61.14;96749.84;5002707;28;20045;-63
2021/03/27 00:46:12;;;;;;;10.15;6.10;;;;;;;6.76;61.80;96749.38;5007065;28;20050;-63
2021/03/27 00:48:51;;;;;;;10.82;5.45;;;;;;;6.67;61.79;96756.22;5012416;28;20041;-62
2021/03/27 00:51:40;;;;;;;9.73;5.82;;;;;;;6.78;61.39;96752.63;5001563;28;20046;-63
2021/03/27 00:55:03;;;;;;;7.93;5.60;;;;;;;6.98;60.47;96748.97;5007690;28;20046;-63
2021/03/27 00:57:34;;;;;;;12.90;5.28;;;;;;;6.91;60.27;96748.75;5000893;28;20346;-64
2021/03/27 01:00:24;;;;;;;8.85;5.55;;;;;;;7.02;60.09;96749.50;4986357;28;20042;-64
2021/03/27 01:03:13;;;;;;;8.77;5.03;;;;;;;7.14;59.57;96749.16;5007690;28;20094;-64
2021/03/27 01:05:59;;;;;;;11.65;4.93;;;;;;;7.20;59.29;96742.59;5004427;28;20052;-65
2021/03/27 01:08:45;;;;;;;12.10;5.50;;;;;;;7.05;59.01;96739.69;5007389;28;20122;-65
2021/03/27 01:11:41;;;;;;;10.32;5.80;;;;;;;7.35;58.68;96740.34;5003309;28;20056;-65
2021/03/27 01:14:20;;;;;;;15.73;5.38;;;;;;;7.40;58.19;96738.09;5023688;28;20137;-65
2021/03/27 01:16:56;;;;;;;11.90;5.38;;;;;;;7.25;57.85;96708.50;5007021;28;20733;-64
2021/03/27 01:19:32;;;;;;;9.68;5.30;;;;;;;7.43;57.99;96737.00;5003364;28;20046;-64
2021/03/27 01:22:04;;;;;;;11.27;5.35;;;;;;;7.47;57.52;96733.16;5005589;28;20034;-65
2021/03/27 01:24:30;;;;;;;12.45;5.03;;;;;;;7.47;57.71;96728.81;5007319;28;20066;-64
2021/03/27 01:27:01;;;;;;;11.13;5.57;;;;;;;7.26;58.43;96739.44;5008428;28;20049;-62
2021/03/27 01:29:35;;;;;;;9.93;5.10;;;;;;;7.28;57.89;96736.69;5008516;28;20424;-63
2021/03/27 01:32:19;;;;;;;11.60;5.00;;;;;;;7.01;59.83;96753.06;5009812;28;20046;-65
2021/03/27 01:34:52;;;;;;;7.40;5.18;;;;;;;7.13;58.60;96751.91;5006573;28;20042;-65
2021/03/27 01:37:30;;;;;;;8.50;4.95;;;;;;;7.05;60.39;96767.34;5011140;28;20049;-64
2021/03/27 01:40:12;;;;;;;8.85;5.07;;;;;;;6.42;63.90;96768.81;5013117;28;20489;-64
2021/03/27 01:42:53;;;;;;;9.63;5.53;;;;;;;6.74;62.70;96765.03;5016590;28;20469;-64
2021/03/27 01:45:49;;;;;;;9.18;5.72;;;;;;;6.70;63.82;96769.66;5008901;28;20405;-65
2021/03/27 01:48:41;;;;;;;10.40;6.07;;;;;;;6.36;64.64;96769.34;5012078;28;20045;-64
2021/03/27 01:51:29;;;;;;;10.48;5.93;;;;;;;6.50;64.00;96765.53;5012305;28;20038;-64
2021/03/27 01:54:05;;;;;;;9.82;4.93;;;;;;;6.77;62.19;96762.13;5006883;28;20397;-65
2021/03/27 01:56:37;;;;;;;9.63;5.65;;;;;;;6.90;62.11;96759.22;5010431;28;20109;-64
2021/03/27 01:59:12;;;;;;;8.02;5.15;;;;;;;6.85;61.97;96758.84;5014886;28;20046;-64
2021/03/27 02:01:48;;;;;;;10.00;5.05;;;;;;;6.86;61.32;96755.31;5011893;28;20038;-64
2021/03/27 02:04:23;;;;;;;11.48;4.68;;;;;;;7.27;58.02;96750.59;5008048;28;20406;-64
2021/03/27 02:07:01;;;;;;;12.73;4.80;;;;;;;7.48;56.96;96748.53;5017829;28;20049;-63
2021/03/27 02:10:00;;;;;;;9.45;4.88;;;;;;;7.60;56.26;96743.97;5006258;28;20552;-64
2021/03/27 02:12:57;;;;;;;7.35;4.53;;;;;;;7.55;56.05;96744.41;5003737;28;20069;-64
2021/03/27 02:16:00;;;;;;;13.35;5.88;;;;;;;7.54;55.90;96729.03;5014923;28;20045;-63
2021/03/27 02:19:03;;;;;;;14.65;6.07;;;;;;;7.45;56.66;96727.28;5005727;28;20050;-63
2021/03/27 02:21:43;;;;;;;12.98;5.95;;;;;;;7.34;56.98;96724.00;5007588;28;20045;-65
2021/03/27 02:24:21;;;;;;;11.07;5.68;;;;;;;7.32;57.75;96727.66;5007919;28;20530;-64
2021/03/27 02:26:53;;;;;;;12.07;6.15;;;;;;;7.10;58.52;96736.66;5012826;28;20406;-65
2021/03/27 02:29:56;;;;;;;14.65;6.13;;;;;;;7.02;59.08;96745.13;5006875;28;20490;-64
2021/03/27 02:32:53;;;;;;;11.07;6.20;;;;;;;6.85;60.31;96736.38;5006044;28;20045;-64
2021/03/27 02:35:30;;;;;;;10.05;6.07;;;;;;;6.89;60.69;96735.13;5007555;28;20054;-64
2021/03/27 02:38:19;;;;;;;9.35;5.78;;;;;;;6.73;60.83;96735.75;5012460;28;20064;-65
2021/03/27 02:41:25;;;;;;;10.15;5.63;;;;;;;6.73;60.87;96740.09;5009015;28;20052;-65
2021/03/27 02:43:59;;;;;;;11.20;5.78;;;;;;;6.69;61.68;96724.06;5009053;28;20048;-65
2021/03/27 02:46:42;;;;;;;11.05;5.53;;;;;;;6.62;61.67;96730.75;5012363;28;20049;-64
2021/03/27 02:49:24;;;;;;;11.25;5.78;;;;;;;6.63;61.54;96734.97;5006988;28;20046;-64
2021/03/27 02:52:09;;;;;;;11.63;5.95;;;;;;;6.85;60.89;96725.22;5010332;28;20069;-65
2021/03/27 02:55:19;;;;;;;12.32;6.03;;;;;;;6.75;60.85;96716.69;5003705;28;20520;-64
2021/03/27 02:58:04;;;;;;;13.23;6.97;;;;;;;6.81;60.45;96713.53;5003674;28;20060;-64
2021/03/27 03:00:40;;;;;;;15.00;6.75;;;;;;;6.73;60.31;96724.56;5004194;28;20068;-64
2021/03/27 03:03:31;;;;;;;14.07;5.55;;;;;;;6.89;59.27;96718.78;5007911;28;20038;-64
2021/03/27 03:06:10;;;;;;;11.85;5.43;;;;;;;6.78;59.81;96722.38;5002077;28;20156;-65
2021/03/27 03:09:05;;;;;;;10.45;5.70;;;;;;;6.84;59.36;96732.16;5006615;28;20042;-64
2021/03/27 03:11:53;;;;;;;8.60;5.35;;;;;;;6.91;59.22;96728.03;5002263;28;20045;-64
2021/03/27 03:14:37;;;;;;;6.13;4.72;;;;;;;6.73;59.60;96730.59;5010665;28;20046;-64
2021/03/27 03:17:16;;;;;;;8.73;4.95;;;;;;;6.84;59.41;96726.19;5011531;28;20136;-65
2021/03/27 03:19:50;;;;;;;9.02;5.30;;;;;;;6.84;59.47;96727.00;5005882;28;20510;-64
2021/03/27 03:22:34;;;;;;;13.07;6.18;;;;;;;6.80;59.42;96725.66;5015999;28;20041;-64
2021/03/27 03:25:08;;;;;;;13.10;6.28;;;;;;;6.86;59.28;96724.28;5003288;28;20510;-63
2021/03/27 03:27:49;;;;;;;11.88;5.60;;;;;;;6.75;59.45;96725.25;5012071;28;20049;-65
2021/03/27 03:30:35;;;;;;;11.18;6.43;;;;;;;6.69;59.80;96731.81;5012996;28;20398;-65
2021/03/27 03:33:23;;;;;;;9.27;4.97;;;;;;;6.62;60.02;96748.84;5009172;28;20052;-64
2021/03/27 03:36:07;;;;;;;9.45;5.18;;;;;;;6.64;60.02;96730.63;5010314;28;20060;-64
2021/03/27 03:38:47;;;;;;;8.63;5.18;;;;;;;6.77;58.52;96738.03;5003217;28;20066;-63
2021/03/27 03:41:16;;;;;;;9.10;5.35;;;;;;;6.75;59.38;96740.78;5001253;28;20038;-64
2021/03/27 03:44:02;;;;;;;10.07;5.10;;;;;;;6.81;59.44;96747.16;5007192;28;20398;-64
2021/03/27 03:46:35;;;;;;;9.07;5.63;;;;;;;6.85;59.22;96743.31;5008346;28;20402;-65
2021/03/27 03:49:32;;;;;;;9.05;5.03;;;;;;;6.83;60.12;96750.41;5001779;28;20037;-64
2021/03/27 03:52:20;;;;;;;10.45;5.18;;;;;;;6.90;59.33;96754.06;5009023;28;20042;-65
2021/03/27 03:55:03;;;;;;;10.75;5.57;;;;;;;6.83;59.57;96758.19;5012756;28;20049;-63
2021/03/27 03:57:29;;;;;;;11.50;5.47;;;;;;;6.75;61.58;96763.25;5009573;28;20045;-64
2021/03/27 04:00:18;;;;;;;8.88;5.60;;;;;;;6.20;64.11;96769.94;5006267;28;20046;-65
2021/03/27 04:03:00;;;;;;;7.90;5.68;;;;;;;6.43;63.49;96769.59;5013443;28;20034;-65
2021/03/27 04:05:37;;;;;;;8.05;5.05;;;;;;;6.27;64.15;96775.38;5009108;28;20230;-65
2021/03/27 04:08:17;;;;;;;6.80;4.95;;;;;;;6.00;65.45;96800.16;5009096;28;20701;-64
2021/03/27 04:10:46;;;;;;;11.32;6.38;;;;;;;6.10;67.10;96806.13;5029229;28;20092;-65
2021/03/27 04:13:23;;;;;;;11.95;6.57;;;;;;;6.16;66.73;96798.78;5008575;28;20386;-65
2021/03/27 04:15:54;;;;;;;11.35;6.60;;;;;;;6.05;67.20;96794.56;5006705;28;20566;-65
2021/03/27 04:18:42;;;;;;;12.30;6.53;;;;;;;6.06;67.33;96788.47;5012273;28;20560;-65
2021/03/27 04:21:15;;;;;;;9.35;6.40;;;;;;;5.62;69.61;96800.91;4994657;28;20046;-66
2021/03/27 04:24:13;;;;;;;9.13;6.10;;;;;;;5.67;68.81;96814.22;5006857;28;20052;-65
2021/03/27 04:26:53;;;;;;;13.65;6.68;;;;;;;5.54;69.88;96803.34;5015235;28;20412;-65
2021/03/27 04:29:22;;;;;;;19.65;6.15;;;;;;;5.48;69.46;96809.84;5008907;28;20554;-65
2021/03/27 04:32:22;;;;;;;12.07;6.65;;;;;;;5.67;67.53;96816.81;5025670;28;20046;-64
2021/03/27 04:35:21;;;;;;;10.63;5.72;;;;;;;5.75;66.33;96814.38;5010732;28;20046;-65
2021/03/27 04:38:09;;;;;;;11.60;5.80;;;;;;;5.85;64.40;96819.56;5010243;28;20037;-64
2021/03/27 04:40:51;;;;;;;9.52;5.75;;;;;;;5.91;64.71;96827.59;5010047;28;20520;-64
2021/03/27 04:43:22;;;;;;;7.18;5.00;;;;;;;6.00;63.73;96831.16;5010415;28;20054;-65
2021/03/27 04:45:58;;;;;;;9.85;5.68;;;;;;;5.94;65.56;96823.91;5025676;28;20052;-63
2021/03/27 04:48:55;;;;;;;9.40;5.90;;;;;;;5.84;63.89;96833.41;5005047;28;20538;-65
2021/03/27 04:51:30;;;;;;;11.98;6.10;;;;;;;6.12;63.53;96821.50;5005081;28;20026;-65
2021/03/27 04:54:05;;;;;;;11.02;5.93;;;;;;;5.81;64.67;96844.84;5027808;28;20045;-65
2021/03/27 04:56:34;;;;;;;18.80;7.40;;;;;;;6.35;61.73;96839.31;5006228;28;20175;-64
2021/03/27 04:59:22;;;;;;;12.90;7.43;;;;;;;6.48;61.52;96845.03;5011775;28;20061;-64
2021/03/27 05:01:55;;;;;;;15.43;7.55;;;;;;;6.30;62.30;96848.28;5015106;28;20030;-65
2021/03/27 05:04:27;;;;;;;14.63;6.68;;;;;;;6.40;62.25;96857.81;5003891;28;20574;-64
2021/03/27 05:07:12;;;;;;;7.80;5.35;;;;;;;6.29;62.60;96856.19;5014466;28;20342;-64
2021/03/27 05:09:48;;;;;;;10.80;6.00;;;;;;;6.26;62.93;96864.22;5008691;28;20050;-65
2021/03/27 05:12:37;;;;;;;13.38;6.55;;;;;;;6.43;62.56;96857.53;5007235;28;20863;-65
2021/03/27 05:15:07;;;;;;;;;;;;;;;6.45;63.01;96868.56;5011033;28;20045;-65
2021/03/27 05:17:45;;;;;;;10.32;6.18;;;;;;;6.37;62.92;96877.00;5012770;28;20023;-64
2021/03/27 05:20:27;;;;;;;10.60;5.93;;;;;;;6.52;62.32;96870.47;5009450;28;20284;-65
2021/03/27 05:23:21;;;;;;;9.65;5.75;;;;;;;6.67;62.06;96885.56;5017324;28;20502;-65
2021/03/27 05:26:01;;;;;;;13.80;5.85;;;;;;;6.64;61.70;96891.81;5013415;28;20050;-65
2021/03/27 05:28:50;;;;;;;9.27;5.78;;;;;;;6.84;61.54;96884.03;5011005;28;20486;-64
2021/03/27 05:31:25;;;;;;;10.50;6.67;;;;;;;7.00;60.64;96896.38;5010338;28;20033;-64
2021/03/27 05:34:23;;;;;;;15.55;6.47;;;;;;;7.10;60.29;96897.97;5017377;28;20490;-65
2021/03/27 05:37:01;;;;;;;10.77;6.00;;;;;;;6.98;61.61;96899.09;5010624;28;20121;-63
2021/03/27 05:39:44;;;;;;;12.55;6.35;;;;;;;6.89;60.94;96912.88;5005382;28;20037;-64
2021/03/27 05:42:48;;;;;;;9.02;5.95;;;;;;;6.91;61.08;96919.53;5015855;28;20668;-64
2021/03/27 05:45:45;;;;;;;9.32;5.93;;;;;;;7.07;61.30;96918.97;5007857;28;20053;-65
2021/03/27 05:48:47;;;;;;;8.15;5.72;;;;;;;7.13;63.44;96936.53;5005490;28;20056;-65
2021/03/27 05:51:51;;;;;;;56.20;26.88;;;;;;;6.96;64.39;96947.59;5004610;28;20482;-65
2021/03/27 05:54:38;;;;;;;74.80;38.53;;;;;;;6.81;64.34;96949.78;4991887;28;20064;-65
2021/03/27 05:57:08;;;;;;;30.08;17.35;;;;;;;6.97;64.14;96961.38;5011444;28;20425;-66
2021/03/27 05:59:56;;;;;;;15.95;6.53;;;;;;;7.16;63.18;96963.91;5003170;28;20041;-65
2021/03/27 06:02:40;;;;;;;12.55;7.60;;;;;;;7.28;64.77;96962.81;5006390;28;20042;-65
2021/03/27 06:05:57;;;;;;;13.18;9.13;;;;;;;7.52;62.73;96964.09;5009177;28;20069;-65
2021/03/27 06:08:25;;;;;;;14.70;7.88;;;;;;;7.67;63.01;96967.03;5014300;28;20046;-65
2021/03/27 06:11:14;;;;;;;9.85;5.97;;;;;;;7.25;64.34;96978.59;5001301;28;20180;-64
2021/03/27 06:14:00;;;;;;;8.30;6.30;;;;;;;7.75;63.73;96973.13;5009094;28;20509;-64
2021/03/27 06:16:32;;;;;;;9.57;6.20;;;;;;;8.30;62.83;96980.06;5011758;28;20057;-63
2021/03/27 06:19:28;;;;;;;10.45;6.10;;;;;;;8.55;62.35;96983.75;5009924;28;20199;-64
2021/03/27 06:22:36;;;;;;;10.35;6.10;;;;;;;8.64;63.35;96987.22;5007884;28;20072;-65
2021/03/27 06:25:23;;;;;;;10.18;7.90;;;;;;;9.07;63.38;97000.38;5008348;28;20053;-64
2021/03/27 06:28:04;;;;;;;8.95;6.75;;;;;;;9.30;62.22;97009.31;5004190;28;20030;-64
2021/03/27 06:31:00;;;;;;;9.63;6.57;;;;;;;9.48;61.55;97004.09;5010545;28;20508;-67
2021/03/27 06:33:29;;;;;;;11.98;7.93;;;;;;;9.62;61.31;97014.88;5009723;28;20050;-64
2021/03/27 06:36:00;;;;;;;33.50;23.70;;;;;;;9.47;63.33;97009.44;5005135;28;20073;-64
2021/03/27 06:38:45;;;;;;;17.95;11.98;;;;;;;9.53;64.57;97016.63;5010229;28;20045;-64
2021/03/27 06:41:31;;;;;;;9.32;6.22;;;;;;;9.61;62.10;97014.06;5007287;28;20064;-65
2021/03/27 06:44:18;;;;;;;11.70;6.10;;;;;;;9.72;62.72;97015.59;5006896;28;20042;-64
2021/03/27 06:47:30;;;;;;;10.40;5.80;;;;;;;9.75;62.83;97018.69;5020868;28;20058;-64
2021/03/27 06:50:26;;;;;;;7.95;5.85;;;;;;;9.81;64.40;97052.84;5006225;28;20146;-64
2021/03/27 06:53:04;;;;;;;9.73;5.80;;;;;;;9.93;60.89;97031.63;5015073;28;20048;-63
2021/03/27 06:55:40;;;;;;;9.05;5.25;;;;;;;10.11;60.38;97034.13;5008057;28;20063;-63
2021/03/27 06:58:32;;;;;;;9.10;5.60;;;;;;;10.46;60.15;97041.94;5007925;28;20052;-63
2021/03/27 07:01:36;;;;;;;9.10;5.15;;;;;;;10.91;58.37;97051.94;5025416;28;20050;-65
2021/03/27 07:04:24;;;;;;;9.07;5.20;;;;;;;11.49;57.43;97055.34;5008763;28;20077;-66
2021/03/27 07:07:09;;;;;;;7.23;5.10;;;;;;;12.02;55.65;97056.59;5007779;28;20049;-67
2021/03/27 07:10:09;;;;;;;7.82;5.10;;;;;;;12.07;56.43;97047.47;5010706;28;20056;-66
2021/03/27 07:12:56;;;;;;;7.90;6.03;;;;;;;12.40;56.01;97048.94;5006771;28;20049;-66
2021/03/27 07:15:37;;;;;;;7.75;4.80;;;;;;;12.31;55.02;97049.94;5006644;28;20050;-66
2021/03/27 07:18:23;;;;;;;6.10;4.75;;;;;;;12.60;54.36;97049.31;5008339;28;20037;-66
2021/03/27 07:21:32;;;;;;;6.43;4.60;;;;;;;12.83;53.62;97048.53;5011298;28;20454;-67
2021/03/27 07:24:30;;;;;;;9.50;4.18;;;;;;;12.77;53.71;97057.06;5003757;28;20041;-66
2021/03/27 07:27:37;;;;;;;6.47;4.45;;;;;;;11.93;55.32;97065.41;5009387;28;20196;-65
2021/03/27 07:30:47;;;;;;;6.47;4.45;;;;;;;11.86;57.40;97050.59;5007303;28;20471;-67
2021/03/27 07:33:49;;;;;;;4.73;3.80;;;;;;;11.43;55.71;97069.06;5005988;28;20056;-65
2021/03/27 07:36:19;;;;;;;5.60;3.38;;;;;;;11.81;54.76;97080.59;5007386;28;20298;-65
2021/03/27 07:39:01;;;;;;;6.60;3.42;;;;;;;11.59;55.88;97074.25;5012099;28;20045;-69
2021/03/27 07:41:52;;;;;;;7.28;2.88;;;;;;;11.56;55.90;97087.63;5014430;28;20038;-70
2021/03/27 07:44:51;;;;;;;9.40;3.78;;;;;;;11.60;56.07;97099.34;5014358;28;20053;-63
2021/03/27 07:47:49;;;;;;;8.07;2.80;;;;;;;11.77;54.95;97097.53;5011005;28;20461;-67
2021/03/27 07:51:06;;;;;;;4.00;2.80;;;;;;;11.06;58.07;97099.00;5011339;28;20076;-68
2021/03/27 07:53:57;;;;;;;6.95;2.60;;;;;;;11.15;56.00;97118.06;5011003;28;20061;-67
2021/03/27 07:56:40;;;;;;;4.65;2.65;;;;;;;10.75;56.78;97120.44;5013858;28;20371;-66
2021/03/27 07:59:19;;;;;;;4.63;2.05;;;;;;;10.92;56.35;97123.06;5012273;28;20042;-67
2021/03/27 08:01:59;;;;;;;9.38;2.22;;;;;;;10.92;56.97;97134.31;5012165;28;20489;-67
2021/03/27 08:04:54;;;;;;;5.45;2.38;;;;;;;10.66;58.28;97144.81;5014775;28;20042;-67
2021/03/27 08:07:23;;;;;;;4.32;2.60;;;;;;;10.11;57.87;97158.19;5010086;28;20038;-67
2021/03/27 08:10:02;;;;;;;6.80;2.20;;;;;;;10.10;58.76;97159.16;5010833;28;20045;-67
2021/03/27 08:12:55;;;;;;;8.68;2.10;;;;;;;9.84;59.83;97179.94;5008570;28;20482;-66
2021/03/27 08:15:59;;;;;;;2.65;1.55;;;;;;;9.29;61.41;97219.91;5012898;28;20052;-66
2021/03/27 08:18:53;;;;;;;7.05;0.73;;;;;;;8.21;63.96;97229.88;5009143;28;20517;-66
2021/03/27 08:21:41;;;;;;;1.40;0.90;;;;;;;8.01;64.40;97264.59;5010760;28;20037;-66
2021/03/27 08:24:13;;;;;;;2.60;1.25;;;;;;;7.62;66.78;97259.41;5013064;28;20100;-68
2021/03/27 08:27:07;;;;;;;18.27;0.93;;;;;;;7.30;67.82;97274.25;5022519;28;20046;-67
2021/03/27 08:29:55;;;;;;;4.63;2.65;;;;;;;7.61;66.62;97289.69;5008178;28;20396;-67
2021/03/27 08:32:29;;;;;;;0.80;0.60;;;;;;;7.57;66.17;97290.09;5015927;28;20033;-67
2021/03/27 08:35:11;;;;;;;2.08;1.08;;;;;;;7.49;66.94;97301.13;5013676;28;20057;-67
2021/03/27 08:38:11;;;;;;;1.77;0.80;;;;;;;7.07;68.00;97319.38;5014128;28;20072;-66
2021/03/27 08:41:07;;;;;;;2.00;0.73;;;;;;;7.20;67.25;97326.97;5010409;28;20140;-72
2021/03/27 08:43:58;;;;;;;9.68;2.65;;;;;;;7.40;67.84;97335.59;5015533;28;20049;-66
2021/03/27 08:46:44;;;;;;;3.28;1.42;;;;;;;7.16;68.44;97346.28;5010213;28;20049;-67
2021/03/27 08:49:30;;;;;;;0.60;0.40;;;;;;;6.98;67.52;97352.06;5012565;28;20129;-66
2021/03/27 08:52:03;;;;;;;3.42;1.60;;;;;;;7.07;67.33;97359.06;5017571;28;20037;-67
2021/03/27 08:54:46;;;;;;;1.33;0.60;;;;;;;6.90;66.91;97368.25;5011443;28;20049;-67
2021/03/27 08:58:07;;;;;;;0.65;0.40;;;;;;;6.68;67.19;97387.31;5009506;28;20041;-67
2021/03/27 09:00:56;;;;;;;9.88;3.65;;;;;;;7.09;65.28;97374.44;4971880;28;20055;-66
2021/03/27 09:03:34;;;;;;;;;;;;;;;7.23;63.89;97381.06;5028363;28;20041;-69
2021/03/27 09:06:23;;;;;;;22.40;8.30;;;;;;;7.64;63.69;97387.06;5002593;28;20328;-68
2021/03/27 09:09:07;;;;;;;3.55;1.33;;;;;;;7.88;63.62;97384.94;5007488;28;20041;-66
2021/03/27 09:12:11;;;;;;;5.47;1.75;;;;;;;7.41;64.85;97394.22;5009154;28;20045;-66
2021/03/27 09:15:11;;;;;;;2.22;1.05;;;;;;;7.93;64.08;97368.97;5011572;28;20060;-66
2021/03/27 09:18:14;;;;;;;2.00;1.42;;;;;;;7.92;60.96;97370.75;5006151;28;20061;-66
2021/03/27 09:21:38;;;;;;;10.70;7.18;;;;;;;8.13;61.55;97377.59;5013481;28;20041;-66
2021/03/27 09:24:37;;;;;;;1.27;0.45;;;;;;;8.29;59.32;97369.28;4985598;28;20518;-66
2021/03/27 09:27:41;;;;;;;0.93;0.50;;;;;;;9.24;56.20;97376.22;4988017;28;20046;-66
2021/03/27 09:30:37;;;;;;;1.52;0.88;;;;;;;9.36;55.46;97372.47;5003855;28;24486;-66
2021/03/27 09:33:27;;;;;;;5.32;4.57;;;;;;;9.66;54.67;97377.53;5008386;28;20044;-66
2021/03/27 09:36:15;;;;;;;3.58;0.60;;;;;;;9.45;55.10;97383.78;5012878;28;20417;-66
2021/03/27 09:38:47;;;;;;;3.15;1.45;;;;;;;9.73;56.52;97384.59;5012440;28;20036;-66
2021/03/27 09:41:13;;;;;;;0.40;0.30;;;;;;;10.38;53.26;97374.03;5011605;28;20038;-66
2021/03/27 09:43:48;;;;;;;0.98;0.70;;;;;;;9.91;54.10;97376.84;5011122;28;20061;-67
2021/03/27 09:46:30;;;;;;;1.70;0.73;;;;;;;11.01;51.30;97385.25;5012039;28;20516;-67
2021/03/27 09:49:14;;;;;;;14.68;11.88;;;;;;;12.00;50.14;97379.50;5010218;28;20494;-67
2021/03/27 09:52:14;;;;;;;18.67;7.47;;;;;;;13.28;47.55;97380.75;5010541;28;20667;-67
2021/03/27 09:55:02;;;;;;;13.60;11.68;;;;;;;11.70;49.22;97377.41;5010613;28;20060;-67
2021/03/27 09:57:39;;;;;;;9.07;8.18;;;;;;;12.05;47.83;97363.34;5010326;28;20038;-67
2021/03/27 10:00:08;;;;;;;8.95;6.90;;;;;;;12.18;49.91;97379.34;5009347;28;20773;-66
2021/03/27 10:03:02;;;;;;;2.33;0.70;;;;;;;11.36;49.68;97373.84;5017199;28;20044;-67
2021/03/27 10:05:50;;;;;;;6.65;0.70;;;;;;;12.16;51.37;97377.88;5011121;28;20038;-67
2021/03/27 10:08:38;;;;;;;0.73;0.60;;;;;;;12.43;48.16;97385.41;5013527;28;20042;-67
2021/03/27 10:11:08;;;;;;;2.15;0.57;;;;;;;12.19;47.32;97381.00;5016603;28;20503;-66
2021/03/27 10:13:37;;;;;;;9.13;7.82;;;;;;;11.74;49.09;97397.78;5015752;28;20118;-67
2021/03/27 10:16:36;;;;;;;4.18;3.30;;;;;;;11.55;49.41;97401.47;5014216;28;20448;-68
2021/03/27 10:19:18;;;;;;;4.78;3.70;;;;;;;12.16;49.36;97393.53;5016497;28;20066;-68
2021/03/27 10:21:57;;;;;;;10.95;8.35;;;;;;;13.34;46.15;97398.41;5014060;28;20056;-67
2021/03/27 10:24:32;;;;;;;1.98;1.05;;;;;;;12.51;48.46;97404.66;5009431;28;20049;-67
2021/03/27 10:27:12;;;;;;;3.38;0.90;;;;;;;12.19;49.46;97401.88;5018436;28;20053;-67
2021/03/27 10:29:55;;;;;;;2.45;0.80;;;;;;;12.16;48.64;97412.63;5013902;28;20049;-67
2021/03/27 10:32:30;;;;;;;6.82;0.93;;;;;;;12.59;46.41;97402.06;5011419;28;20038;-67
2021/03/27 10:35:15;;;;;;;3.90;0.73;;;;;;;13.42;44.70;97398.38;5011835;28;20046;-67
2021/03/27 10:37:57;;;;;;;3.45;0.60;;;;;;;13.64;44.66;97391.59;5011550;28;20449;-68
2021/03/27 10:41:13;;;;;;;2.42;0.70;;;;;;;14.22;42.81;97394.72;5009262;28;20061;-68
2021/03/27 10:43:52;;;;;;;0.90;0.68;;;;;;;14.43;42.41;97386.22;5012767;28;20058;-67
2021/03/27 10:46:26;;;;;;;1.67;1.30;;;;;;;14.95;42.49;97379.44;5013839;28;20482;-66
2021/03/27 10:49:19;;;;;;;3.13;0.70;;;;;;;14.30;41.70;97392.03;5013605;28;20045;-66
2021/03/27 10:52:07;;;;;;;1.77;0.70;;;;;;;13.78;44.22;97393.50;5024442;28;20065;-68
2021/03/27 10:55:11;;;;;;;4.07;0.80;;;;;;;13.99;41.71;97403.38;5013370;28;20049;-67
2021/03/27 10:58:14;;;;;;;1.10;0.70;;;;;;;17.75;37.40;97403.22;5012324;28;20042;-68
2021/03/27 11:01:14;;;;;;;7.03;2.65;;;;;;;16.11;38.12;97408.59;5014483;28;20048;-67
2021/03/27 11:04:21;;;;;;;3.08;2.17;;;;;;;13.90;43.50;97406.19;5009748;28;20033;-66
2021/03/27 11:07:18;;;;;;;1.95;1.38;;;;;;;13.63;42.07;97411.72;5017460;28;20124;-68
2021/03/27 11:10:34;;;;;;;1.60;0.93;;;;;;;12.63;46.72;97416.41;5013150;28;20053;-67
2021/03/27 11:13:15;;;;;;;1.13;0.52;;;;;;;11.77;44.38;97422.78;5012963;28;20105;-67
2021/03/27 11:16:19;;;;;;;1.38;0.68;;;;;;;12.08;45.59;97422.22;5011273;28;20050;-66
2021/03/27 11:19:09;;;;;;;2.03;0.68;;;;;;;12.62;43.80;97418.22;5012570;28;20052;-67
2021/03/27 11:21:50;;;;;;;1.00;0.70;;;;;;;12.88;43.46;97421.66;5018791;28;20064;-68
2021/03/27 11:24:32;;;;;;;2.67;0.60;;;;;;;13.31;40.85;97411.81;5011207;28;20497;-69
2021/03/27 11:27:17;;;;;;;0.82;0.60;;;;;;;13.82;40.22;97420.94;5008310;28;20068;-69
2021/03/27 11:30:00;;;;;;;0.70;0.45;;;;;;;14.68;36.45;97426.19;5025230;28;20050;-68
2021/03/27 11:32:43;;;;;;;0.95;0.70;;;;;;;16.58;33.50;97420.41;5005119;28;20057;-68
2021/03/27 11:35:19;;;;;;;1.25;0.98;;;;;;;14.68;40.00;97434.03;5009308;28;20049;-68
2021/03/27 11:37:51;;;;;;;1.45;1.08;;;;;;;16.15;38.94;97446.63;5010856;28;20100;-68
2021/03/27 11:40:34;;;;;;;21.00;15.77;;;;;;;21.49;30.27;97440.91;5007198;28;20057;-68
2021/03/27 11:43:25;;;;;;;30.25;24.33;;;;;;;19.28;29.49;97428.03;5004135;28;20129;-69
2021/03/27 11:46:04;;;;;;;0.85;0.50;;;;;;;15.84;33.57;97442.44;5005389;28;20080;-68
2021/03/27 11:48:33;;;;;;;1.55;0.60;;;;;;;16.15;33.05;97428.25;5012538;28;20041;-69
2021/03/27 11:51:27;;;;;;;1.13;0.47;;;;;;;14.88;34.55;97431.75;5005319;28;20064;-68
2021/03/27 11:54:28;;;;;;;8.88;4.78;;;;;;;14.83;36.43;97440.13;5014701;28;20060;-68
2021/03/27 11:57:09;;;;;;;34.92;15.95;;;;;;;16.02;34.40;97444.66;5012328;28;20148;-68
2021/03/27 12:03:14;;;;;;;2.35;0.50;;;;;;;14.00;38.66;97443.44;5011166;28;20047;-68
2021/03/27 12:06:12;;;;;;;2.40;0.70;;;;;;;15.07;36.45;97438.31;5015160;28;20080;-68
2021/03/27 12:08:54;;;;;;;2.47;0.90;;;;;;;14.08;36.74;97429.50;4995593;28;20053;-69
2021/03/27 12:11:29;;;;;;;4.13;2.60;;;;;;;14.14;35.21;97442.72;5006617;28;20072;-70
2021/03/27 12:14:46;;;;;;;5.45;2.63;;;;;;;14.09;37.02;97442.41;5007277;28;20049;-69
2021/03/27 12:17:25;;;;;;;1.65;0.40;;;;;;;12.77;40.83;97446.31;5008361;28;20478;-67
2021/03/27 12:20:41;;;;;;;7.63;1.67;;;;;;;13.43;38.15;97441.84;5005368;28;20065;-66
2021/03/27 12:23:21;;;;;;;1.95;0.60;;;;;;;12.21;39.34;97457.34;5007417;28;20081;-67
2021/03/27 12:26:25;;;;;;;2.67;0.98;;;;;;;11.47;41.15;97463.19;5010339;28;20033;-67
2021/03/27 12:29:12;;;;;;;0.30;0.30;;;;;;;10.95;43.17;97443.16;5010134;28;20048;-67
2021/03/27 12:32:07;;;;;;;3.60;0.82;;;;;;;11.53;42.91;97463.38;5013236;28;20049;-67
2021/03/27 12:34:58;;;;;;;3.08;1.00;;;;;;;11.36;42.54;97466.88;5005825;28;20071;-67
2021/03/27 12:37:36;;;;;;;57.65;4.07;;;;;;;11.51;41.08;97473.16;5003870;28;20057;-67
2021/03/27 12:40:07;;;;;;;;;;;;;;;10.68;44.38;97460.53;5014127;28;20053;-65
2021/03/27 12:42:44;;;;;;;28.73;2.20;;;;;;;11.06;44.07;97468.97;5008176;28;19935;-67
2021/03/27 12:45:22;;;;;;;2.70;1.30;;;;;;;11.04;42.61;97472.69;5012552;28;20452;-67
2021/03/27 12:48:05;;;;;;;3.80;1.98;;;;;;;10.92;43.36;97475.56;5012117;28;20478;-67
2021/03/27 12:51:02;;;;;;;1.33;0.68;;;;;;;12.12;42.18;97468.72;5007054;28;20066;-66
2021/03/27 12:53:54;;;;;;;3.75;1.83;;;;;;;12.91;39.89;97474.41;5010056;28;20089;-67
2021/03/27 12:56:41;;;;;;;1.75;0.80;;;;;;;12.30;40.46;97479.06;5012257;28;20037;-67
2021/03/27 12:59:07;;;;;;;5.75;2.90;;;;;;;11.33;43.07;97472.41;5011198;28;20690;-67
2021/03/27 13:01:45;;;;;;;4.78;2.10;;;;;;;11.80;43.75;97469.41;5013217;28;20394;-67
2021/03/27 13:04:30;;;;;;;2.33;1.20;;;;;;;11.15;43.89;97470.69;5011948;28;20066;-67
2021/03/27 13:07:12;;;;;;;3.42;2.20;;;;;;;12.78;41.52;97461.84;5009026;28;20050;-67